createdAt,value
2018-11-02T05:49:30.333Z,2.57
2018-11-02T05:51:59.382Z,1.50
2018-11-02T06:08:30.859Z,2.00
2018-11-02T06:11:00.951Z,5.03
2018-11-02T06:13:31.730Z,1.63
2018-11-02T06:16:22.943Z,2.07
2018-11-02T06:19:00.493Z,1.90
2018-11-02T06:21:34.205Z,2.30
2018-11-02T06:24:05.345Z,2.87
2018-11-02T06:26:35.273Z,3.30
2018-11-02T06:29:05.501Z,3.20
2018-11-02T06:31:49.666Z,2.07
2018-11-02T06:34:21.813Z,1.60
2018-11-02T06:36:59.042Z,2.67
2018-11-02T06:39:28.521Z,1.83
2018-11-02T06:42:00.806Z,2.20
2018-11-02T06:44:32.614Z,1.93
2018-11-02T06:47:02.038Z,1.93
2018-11-02T06:49:32.615Z,1.80
2018-11-02T06:52:05.333Z,1.30
2018-11-02T06:54:34.462Z,1.77
2018-11-02T06:57:03.376Z,1.53
2018-11-02T07:02:24.781Z,1.70
2018-11-02T07:04:53.936Z,1.87
2018-11-02T07:07:25.627Z,2.07
2018-11-02T07:09:59.872Z,2.20
2018-11-02T07:12:33.872Z,3.73
2018-11-02T07:15:05.060Z,2.67
2018-11-02T07:20:15.187Z,2.53
2018-11-02T07:26:29.768Z,3.13
2018-11-02T07:28:59.970Z,4.83
2018-11-02T07:31:30.993Z,3.23
2018-11-02T07:33:59.868Z,5.80
2018-11-02T07:36:29.671Z,6.37
2018-11-02T07:39:17.356Z,5.80
2018-11-02T07:41:47.235Z,4.43
2018-11-02T07:44:18.264Z,3.47
2018-11-02T07:46:50.644Z,2.50
2018-11-02T07:49:19.794Z,4.47
2018-11-02T07:51:49.425Z,9.13
2018-11-02T07:54:21.973Z,3.13
2018-11-02T07:56:51.424Z,6.83
2018-11-02T07:59:23.922Z,4.00
2018-11-02T08:01:53.874Z,5.53
2018-11-02T08:04:22.696Z,5.97
2018-11-02T08:06:54.375Z,6.10
2018-11-02T08:09:24.257Z,8.60
2018-11-02T08:12:00.065Z,8.27
2018-11-02T08:14:29.137Z,9.07
2018-11-02T08:16:59.171Z,7.27
2018-11-02T08:19:29.052Z,9.90
2018-11-02T08:21:59.998Z,6.80
2018-11-02T08:24:31.293Z,7.17
2018-11-02T08:27:02.214Z,5.70
2018-11-02T08:29:33.616Z,6.97
2018-11-02T08:32:10.327Z,5.87
2018-11-02T08:34:43.073Z,4.07
2018-11-02T08:37:20.968Z,4.97
2018-11-02T08:39:51.348Z,4.63
2018-11-02T08:42:21.935Z,5.27
2018-11-02T08:47:43.914Z,4.30
2018-11-02T08:50:15.266Z,5.90
2018-11-02T08:53:04.632Z,3.60
2018-11-02T08:55:58.061Z,3.80
2018-11-02T08:58:31.457Z,3.30
2018-11-02T09:10:30.657Z,5.10
2018-11-02T09:13:17.230Z,4.57
2018-11-02T09:18:25.076Z,5.10
2018-11-02T09:20:57.607Z,3.83
2018-11-02T09:26:04.918Z,4.97
2018-11-02T09:28:36.261Z,2.93
2018-11-02T09:31:10.599Z,6.20
2018-11-02T09:33:52.293Z,3.30
2018-11-02T09:36:29.089Z,3.47
2018-11-02T09:41:49.040Z,6.27
2018-11-02T09:44:21.615Z,4.10
2018-11-02T09:46:58.839Z,4.57
2018-11-02T09:49:33.014Z,4.40
2018-11-02T09:52:08.778Z,3.90
2018-11-02T09:54:59.513Z,4.57
2018-11-02T09:57:41.961Z,4.50
2018-11-02T10:00:17.527Z,6.00
2018-11-02T10:02:59.069Z,4.50
2018-11-02T10:05:58.653Z,3.33
2018-11-02T10:08:41.071Z,2.97
2018-11-02T10:18:11.651Z,4.47
2018-11-02T10:23:42.056Z,4.57
2018-11-02T10:26:38.559Z,4.63
2018-11-02T10:46:31.189Z,3.40
2018-11-02T10:49:36.511Z,4.13
2018-11-02T11:01:59.769Z,5.27
2018-11-02T11:11:07.062Z,4.17
2018-11-02T11:13:42.940Z,4.47
2018-11-02T11:16:14.351Z,3.67
2018-11-02T11:19:04.767Z,4.23
2018-11-02T11:21:46.238Z,8.53
2018-11-02T11:32:01.880Z,4.30
2018-11-02T11:34:36.698Z,5.20
2018-11-02T11:37:30.787Z,6.40
2018-11-02T11:40:02.152Z,5.97
2018-11-02T11:42:47.404Z,8.57
2018-11-02T11:45:34.385Z,8.40
2018-11-02T11:48:06.253Z,9.80
2018-11-02T11:50:43.982Z,7.00
2018-11-02T11:53:21.150Z,4.90
2018-11-02T11:56:02.356Z,6.23
2018-11-02T12:10:48.249Z,4.13
2018-11-02T12:13:26.685Z,5.20
2018-11-02T12:16:08.759Z,5.57
2018-11-02T12:27:03.847Z,5.37
2018-11-02T12:36:16.397Z,4.97
2018-11-02T12:38:58.972Z,3.07
2018-11-02T12:56:31.648Z,2.83
2018-11-02T12:59:10.579Z,3.80
2018-11-02T13:01:47.258Z,2.77
2018-11-02T13:28:07.660Z,2.23
2018-11-02T13:30:49.641Z,3.63
2018-11-02T13:33:30.020Z,4.23
2018-11-02T13:36:15.770Z,3.27
2018-11-02T13:38:49.946Z,2.20
2018-11-02T13:41:40.151Z,2.30
2018-11-02T13:56:38.564Z,1.20
2018-11-02T13:59:21.467Z,1.40
2018-11-02T14:08:01.614Z,1.10
2018-11-02T14:10:39.566Z,2.67
2018-11-02T14:13:34.386Z,1.40
2018-11-02T14:24:24.514Z,1.93
2018-11-02T14:27:05.326Z,3.90
2018-11-02T14:41:56.726Z,2.27
2018-11-02T14:44:33.598Z,2.87
2018-11-02T14:47:17.928Z,2.50
2018-11-02T14:50:04.692Z,1.20
2018-11-02T14:53:11.373Z,1.17
2018-11-02T14:55:46.992Z,1.57
2018-11-02T14:58:23.575Z,2.53
2018-11-02T15:18:52.350Z,5.27
2018-11-02T15:21:27.692Z,6.47
2018-11-02T15:24:02.327Z,4.47
2018-11-02T15:32:15.189Z,3.90
2018-11-02T15:34:52.617Z,4.47
2018-11-02T15:37:35.427Z,3.40
2018-11-02T15:40:14.643Z,3.93
2018-11-02T15:45:48.767Z,3.67
2018-11-02T15:48:29.005Z,3.13
2018-11-02T15:51:03.921Z,3.40
2018-11-02T16:49:18.837Z,4.90
2018-11-02T16:54:48.851Z,5.50
2018-11-02T16:57:30.347Z,5.03
2018-11-02T17:03:30.018Z,8.27
2018-11-02T17:12:03.560Z,11.13
2018-11-02T17:17:40.035Z,19.17
2018-11-02T17:20:28.775Z,17.73
2018-11-02T17:26:04.049Z,16.90
2018-11-02T17:32:04.382Z,15.93
2018-11-02T17:49:49.461Z,9.90
2018-11-02T17:52:29.273Z,10.13
2018-11-02T17:55:23.793Z,8.53
2018-11-02T17:58:24.187Z,7.70
2018-11-02T18:01:04.246Z,6.70
2018-11-02T18:07:24.591Z,7.43
2018-11-02T18:16:45.226Z,9.67
2018-11-02T18:19:15.864Z,9.07
2018-11-02T18:28:48.974Z,8.20
2018-11-02T18:32:02.642Z,22.47
2018-11-02T18:34:54.346Z,18.27
2018-11-02T18:37:45.064Z,13.03
2018-11-02T18:40:25.694Z,10.90
2018-11-02T18:45:43.504Z,9.27
2018-11-02T18:48:13.530Z,9.70
2018-11-02T19:07:31.561Z,8.07
2018-11-02T19:10:01.171Z,7.90
2018-11-02T19:12:38.670Z,7.57
2018-11-02T19:15:26.704Z,9.73
2018-11-02T19:20:53.154Z,8.00
2018-11-02T19:23:22.206Z,7.37
2018-11-02T19:36:13.604Z,6.43
2018-11-02T19:38:51.586Z,6.70
2018-11-02T19:44:16.494Z,5.47
2018-11-02T19:46:52.839Z,5.13
2018-11-02T19:49:25.809Z,5.70
2018-11-02T19:52:10.457Z,7.03
2018-11-02T19:54:51.340Z,6.03
2018-11-02T20:00:07.150Z,6.27
2018-11-02T20:02:48.941Z,6.83
2018-11-02T20:05:23.387Z,7.67
2018-11-02T20:08:02.670Z,8.30
2018-11-02T20:10:42.736Z,8.60
2018-11-02T20:13:16.532Z,5.63
2018-11-02T20:16:02.218Z,7.33
2018-11-02T20:21:29.193Z,13.10
2018-11-02T20:23:58.877Z,7.30
2018-11-02T20:26:42.711Z,8.33
2018-11-02T20:29:20.588Z,8.83
2018-11-02T20:32:00.602Z,10.73
2018-11-02T20:34:32.803Z,12.37
2018-11-02T20:37:02.881Z,7.00
2018-11-02T20:39:36.528Z,8.03
2018-11-02T20:42:10.704Z,7.03
2018-11-02T20:44:45.257Z,7.20
2018-11-02T20:47:18.965Z,8.77
2018-11-02T20:49:54.507Z,7.73
2018-11-02T20:52:27.698Z,8.27
2018-11-02T20:55:02.086Z,9.20
2018-11-02T21:00:22.203Z,7.87
2018-11-02T21:16:34.427Z,12.50
2018-11-02T21:25:01.430Z,13.07
2018-11-02T21:27:36.999Z,12.77
2018-11-02T21:35:50.269Z,9.47
2018-11-02T21:38:20.553Z,12.53
2018-11-02T21:43:40.873Z,15.37
